Radway, Canada
Current Conditions -  °F | °C
As of 6:00 AM on Friday 19 Dec 2014 (Local Time) from CYED Reporting Station
Clear Clear  
Wind Chill:   Ceiling: Unl
Heat Index:   Visibility: 4mi
Dew Point:   Wind: 2mph
Humidity: 85%   Direction: 80°E
Pressure: 29.72"   Gusts: NA
Location:  54.06°N, 112.95°W
Report Text: CYED 191300Z AUTO 08002KT 4SM CLR M15/M17 A2972 RMK SLP117
Loading
Personal Weather Stations






























Interactive Weather Map New forecast layout! Learn more

10-Day Weather Forecast

Advertisements
Track Severe Weather on mobile